createdAt,value
2022-08-05T00:01:35.477Z,80.63
2022-08-05T00:04:05.077Z,80.70
2022-08-05T00:06:35.867Z,81.60
2022-08-05T00:09:05.045Z,80.98
2022-08-05T00:11:48.399Z,81.57
2022-08-05T00:14:17.635Z,81.09
2022-08-05T00:16:52.548Z,81.19
2022-08-05T00:19:22.664Z,82.02
2022-08-05T00:21:50.450Z,81.45
2022-08-05T00:24:19.258Z,82.05
2022-08-05T00:26:53.348Z,82.19
2022-08-05T00:29:25.547Z,82.10
2022-08-05T00:32:13.529Z,81.97
2022-08-05T00:35:04.655Z,82.13
2022-08-05T00:37:51.002Z,82.36
2022-08-05T00:40:27.390Z,82.08
2022-08-05T00:42:57.656Z,81.93
2022-08-05T00:45:28.226Z,82.43
2022-08-05T00:48:06.216Z,82.44
2022-08-05T00:50:34.182Z,81.85
2022-08-05T00:53:01.146Z,82.79
2022-08-05T00:55:42.170Z,81.84
2022-08-05T00:58:11.522Z,81.87
2022-08-05T01:00:39.869Z,81.92
2022-08-05T01:03:07.886Z,82.11
2022-08-05T01:05:35.527Z,82.29
2022-08-05T01:08:42.278Z,82.64
2022-08-05T01:10:58.038Z,82.09
2022-08-05T01:13:58.835Z,82.59
2022-08-05T01:16:36.081Z,82.67
2022-08-05T01:19:19.928Z,82.53
2022-08-05T01:22:24.142Z,82.75
2022-08-05T01:25:07.450Z,82.94
2022-08-05T01:27:56.581Z,82.46
2022-08-05T01:30:34.631Z,83.02
2022-08-05T01:33:08.059Z,83.09
2022-08-05T01:35:50.780Z,83.09
2022-08-05T01:38:27.331Z,82.82
2022-08-05T01:41:01.589Z,82.48
2022-08-05T01:43:31.282Z,83.12
2022-08-05T01:46:07.122Z,83.13
2022-08-05T01:48:49.811Z,82.40
2022-08-05T01:51:18.845Z,82.35
2022-08-05T01:53:57.246Z,82.42
2022-08-05T01:58:29.495Z,82.80
2022-08-05T01:59:21.879Z,82.84
2022-08-05T02:01:51.954Z,82.58
2022-08-05T02:04:24.269Z,82.70
2022-08-05T02:06:52.888Z,82.44
2022-08-05T02:09:20.636Z,82.80
2022-08-05T02:11:57.153Z,83.18
2022-08-05T02:14:32.385Z,83.07
2022-08-05T02:17:26.249Z,83.37
2022-08-05T02:20:07.680Z,82.84
2022-08-05T02:22:43.761Z,83.04
2022-08-05T02:25:25.720Z,82.55
2022-08-05T02:27:58.263Z,82.96
2022-08-05T02:30:34.464Z,83.28
2022-08-05T02:33:03.188Z,83.09
2022-08-05T02:35:38.551Z,83.36
2022-08-05T02:38:19.402Z,84.02
2022-08-05T02:40:47.565Z,83.92
2022-08-05T02:43:16.903Z,83.93
2022-08-05T02:45:51.643Z,84.50
2022-08-05T02:48:29.549Z,84.45
2022-08-05T02:51:28.283Z,84.00
2022-08-05T02:54:35.632Z,83.97
2022-08-05T02:58:09.385Z,84.26
2022-08-05T03:00:35.403Z,84.62
2022-08-05T03:03:24.424Z,84.33
2022-08-05T03:06:53.762Z,84.49
2022-08-05T03:09:26.993Z,84.67
2022-08-05T03:12:24.943Z,83.88
2022-08-05T03:15:12.420Z,84.32
2022-08-05T03:17:59.595Z,84.15
2022-08-05T03:20:48.857Z,84.47
2022-08-05T03:23:36.153Z,84.22
2022-08-05T03:26:31.516Z,84.34
2022-08-05T03:29:19.921Z,83.79
2022-08-05T03:32:08.574Z,83.72
2022-08-05T03:34:56.853Z,83.75
2022-08-05T03:37:46.345Z,83.89
2022-08-05T03:40:34.483Z,83.71
2022-08-05T03:44:10.042Z,84.38
2022-08-05T03:46:32.577Z,84.18
2022-08-05T03:49:19.711Z,84.26
2022-08-05T03:52:37.866Z,84.06
2022-08-05T03:56:05.628Z,84.41
2022-08-05T03:58:43.013Z,84.29
2022-08-05T04:01:34.599Z,83.55
2022-08-05T04:04:23.250Z,83.51
2022-08-05T04:07:13.790Z,84.30
2022-08-05T04:10:01.657Z,84.08
2022-08-05T04:12:50.347Z,84.36
2022-08-05T04:15:38.545Z,84.39
2022-08-05T04:18:43.505Z,84.25
2022-08-05T04:22:09.624Z,84.16
2022-08-05T04:24:52.671Z,84.31
2022-08-05T04:27:43.838Z,83.58
2022-08-05T04:30:44.637Z,83.77
2022-08-05T04:34:18.904Z,84.06
2022-08-05T04:36:45.577Z,84.41
2022-08-05T04:39:37.198Z,83.74
2022-08-05T04:42:25.487Z,83.88
2022-08-05T04:45:22.820Z,84.45
2022-08-05T04:48:29.737Z,84.09
2022-08-05T04:51:17.632Z,83.78
2022-08-05T04:54:05.129Z,83.79
2022-08-05T04:56:56.266Z,83.53
2022-08-05T04:59:47.944Z,83.67
2022-08-05T05:02:41.934Z,83.65
2022-08-05T05:05:30.527Z,83.70
2022-08-05T05:08:26.733Z,83.93
2022-08-05T05:11:17.460Z,83.60
2022-08-05T05:14:04.522Z,83.51
2022-08-05T05:16:55.681Z,84.18
2022-08-05T05:19:44.370Z,83.48
2022-08-05T05:22:34.808Z,83.22
2022-08-05T05:25:40.449Z,83.27
2022-08-05T05:28:28.783Z,83.04
2022-08-05T05:31:16.242Z,83.81
2022-08-05T05:34:05.621Z,83.38
2022-08-05T05:36:52.674Z,83.05
2022-08-05T05:39:39.695Z,83.38
2022-08-05T05:42:30.321Z,83.55
2022-08-05T05:45:17.509Z,83.30
2022-08-05T05:48:06.991Z,83.39
2022-08-05T05:50:56.277Z,83.83
2022-08-05T05:53:54.072Z,83.75
2022-08-05T05:56:48.745Z,83.33
2022-08-05T05:59:40.354Z,83.47
2022-08-05T06:02:32.817Z,83.29
2022-08-05T06:05:28.284Z,83.77
2022-08-05T06:08:31.605Z,84.08
2022-08-05T06:11:20.991Z,83.82
2022-08-05T06:14:07.979Z,83.50
2022-08-05T06:16:55.013Z,83.49
2022-08-05T06:19:44.043Z,83.65
2022-08-05T06:22:46.013Z,84.06
2022-08-05T06:26:12.466Z,83.55
2022-08-05T06:28:40.480Z,83.59
2022-08-05T06:31:30.465Z,83.23
2022-08-05T06:34:20.167Z,83.30
2022-08-05T06:37:08.335Z,83.28
2022-08-05T06:39:55.498Z,83.32
2022-08-05T06:42:42.477Z,83.51
2022-08-05T06:46:03.395Z,82.92
2022-08-05T06:48:56.107Z,83.30
2022-08-05T06:51:44.790Z,83.29
2022-08-05T06:54:32.393Z,83.17
2022-08-05T06:58:02.981Z,82.61
2022-08-05T07:00:27.497Z,82.57
2022-08-05T07:03:16.778Z,83.17
2022-08-05T07:06:05.674Z,82.76
2022-08-05T07:09:04.387Z,82.47
2022-08-05T07:11:55.469Z,82.63
2022-08-05T07:14:45.793Z,82.02
2022-08-05T07:18:00.459Z,82.35
2022-08-05T07:20:39.836Z,82.19
2022-08-05T07:23:29.575Z,82.10
2022-08-05T07:26:22.449Z,82.43
2022-08-05T07:29:09.975Z,81.86
2022-08-05T07:31:40.701Z,81.83
2022-08-05T07:34:26.238Z,81.72
2022-08-05T07:36:56.048Z,81.96
2022-08-05T07:40:03.680Z,82.15
2022-08-05T07:42:15.102Z,81.83
2022-08-05T07:44:43.346Z,81.68
2022-08-05T07:47:20.713Z,81.68
2022-08-05T07:49:54.509Z,81.52
2022-08-05T07:52:23.922Z,81.40
2022-08-05T07:54:53.329Z,80.99
2022-08-05T07:57:41.491Z,80.85
2022-08-05T08:00:11.407Z,80.60
2022-08-05T08:03:15.219Z,80.50
2022-08-05T08:05:28.249Z,80.24
2022-08-05T08:07:59.442Z,79.73
2022-08-05T08:10:48.997Z,79.88
2022-08-05T08:13:43.009Z,79.62
2022-08-05T08:16:51.148Z,79.35
2022-08-05T08:20:43.194Z,79.47
2022-08-05T08:22:27.509Z,79.25
2022-08-05T08:24:54.717Z,78.82
2022-08-05T08:27:51.227Z,78.92
2022-08-05T08:30:47.699Z,78.64
2022-08-05T08:33:37.944Z,78.56
2022-08-05T08:36:38.627Z,78.12
2022-08-05T08:39:30.375Z,78.14
2022-08-05T08:42:02.082Z,77.93
2022-08-05T08:45:20.090Z,78.10
2022-08-05T08:48:06.328Z,77.87
2022-08-05T08:50:31.248Z,77.87
2022-08-05T08:53:12.045Z,77.48
2022-08-05T08:56:04.083Z,77.26
2022-08-05T08:58:43.228Z,77.16
2022-08-05T09:01:16.345Z,77.26
2022-08-05T09:03:55.222Z,77.20
2022-08-05T09:06:29.019Z,77.06
2022-08-05T09:08:59.098Z,77.05
2022-08-05T09:11:53.430Z,77.27
2022-08-05T09:14:58.768Z,76.96
2022-08-05T09:17:01.314Z,77.28
2022-08-05T09:19:36.569Z,76.75
2022-08-05T09:22:23.205Z,76.59
2022-08-05T09:25:00.894Z,76.37
2022-08-05T09:28:05.540Z,76.14
2022-08-05T09:30:23.729Z,76.24
2022-08-05T09:32:51.677Z,75.64
2022-08-05T09:35:26.948Z,75.58
2022-08-05T09:38:12.516Z,75.33
2022-08-05T09:40:51.888Z,75.32
2022-08-05T09:43:54.458Z,75.54
2022-08-05T09:46:58.115Z,75.29
2022-08-05T09:50:00.823Z,75.24
2022-08-05T09:52:52.785Z,75.34
2022-08-05T09:55:57.053Z,75.05
2022-08-05T09:58:50.188Z,74.57
2022-08-05T10:01:39.701Z,74.35
2022-08-05T10:04:34.966Z,74.10
2022-08-05T10:07:50.457Z,74.14
2022-08-05T10:10:32.465Z,73.54
2022-08-05T10:13:21.305Z,72.91
2022-08-05T10:16:09.254Z,72.66
2022-08-05T10:18:57.356Z,72.61
2022-08-05T10:21:24.549Z,72.24
2022-08-05T10:24:00.055Z,72.04
2022-08-05T10:26:32.604Z,72.08
2022-08-05T10:29:01.212Z,71.71
2022-08-05T10:32:53.762Z,71.74
2022-08-05T10:34:16.986Z,71.86
2022-08-05T10:37:04.385Z,72.14
2022-08-05T10:39:59.442Z,72.17
2022-08-05T10:42:57.686Z,71.47
2022-08-05T10:45:47.845Z,71.32
2022-08-05T10:49:01.551Z,71.37
2022-08-05T10:52:15.257Z,71.03
2022-08-05T10:55:22.702Z,70.66
2022-08-05T10:58:23.472Z,70.58
2022-08-05T11:01:55.012Z,70.02
2022-08-05T11:04:42.258Z,68.64
2022-08-05T11:07:33.305Z,67.94
2022-08-05T11:10:50.200Z,67.50
2022-08-05T11:14:03.751Z,66.70
2022-08-05T11:16:47.547Z,66.31
2022-08-05T11:20:10.642Z,65.68
2022-08-05T11:22:43.017Z,64.64
2022-08-05T11:26:06.105Z,64.32
2022-08-05T11:28:18.781Z,64.25
2022-08-05T11:30:58.718Z,63.77
2022-08-05T11:33:48.754Z,63.45
2022-08-05T11:36:34.420Z,62.05
2022-08-05T11:39:07.055Z,61.50
2022-08-05T11:42:00.904Z,61.21
2022-08-05T11:44:40.926Z,60.48
2022-08-05T11:47:49.985Z,59.76
2022-08-05T11:50:10.581Z,59.38
2022-08-05T11:52:44.018Z,59.36
2022-08-05T11:55:13.594Z,58.68
2022-08-05T11:58:09.532Z,58.50
2022-08-05T12:00:38.342Z,58.31
2022-08-05T12:03:28.467Z,58.73
2022-08-05T12:06:03.183Z,58.07
2022-08-05T12:08:33.837Z,57.86
2022-08-05T12:11:06.015Z,58.03
2022-08-05T12:13:48.374Z,58.04
2022-08-05T12:16:27.058Z,58.08
2022-08-05T12:18:54.925Z,58.15
2022-08-05T12:21:33.591Z,58.71
2022-08-05T12:24:14.185Z,57.75
2022-08-05T12:26:52.882Z,58.06
2022-08-05T12:29:38.744Z,58.42
2022-08-05T12:32:07.545Z,58.03
2022-08-05T12:34:38.573Z,58.06
2022-08-05T12:37:17.033Z,57.57
2022-08-05T12:39:51.105Z,58.06
2022-08-05T12:42:20.911Z,57.97
2022-08-05T12:44:48.264Z,57.52
2022-08-05T12:47:28.643Z,58.44
2022-08-05T12:50:03.448Z,57.33
2022-08-05T12:52:41.838Z,57.61
2022-08-05T12:55:40.491Z,58.01
2022-08-05T12:58:48.494Z,57.60
2022-08-05T13:02:03.366Z,57.16
2022-08-05T13:04:00.880Z,58.16
2022-08-05T13:06:29.436Z,57.33
2022-08-05T13:08:57.552Z,58.03
2022-08-05T13:12:01.233Z,58.88
2022-08-05T13:14:40.164Z,58.44
2022-08-05T13:17:50.410Z,58.31
2022-08-05T13:20:40.511Z,58.08
2022-08-05T13:23:27.633Z,58.00
2022-08-05T13:26:14.556Z,58.57
2022-08-05T13:28:44.159Z,57.89
2022-08-05T13:31:14.305Z,58.47
2022-08-05T13:34:21.143Z,59.50
2022-08-05T13:36:29.517Z,60.11
2022-08-05T13:40:13.041Z,60.58
2022-08-05T13:42:23.771Z,61.42
2022-08-05T13:44:56.587Z,61.51
2022-08-05T13:47:35.588Z,62.12
2022-08-05T13:50:16.792Z,61.88
2022-08-05T13:52:44.141Z,62.35
2022-08-05T13:55:41.523Z,62.68
2022-08-05T13:58:04.149Z,62.77
2022-08-05T14:00:32.022Z,62.69
2022-08-05T14:03:01.195Z,62.58
2022-08-05T14:05:48.304Z,62.83
2022-08-05T14:08:20.095Z,63.01
2022-08-05T14:11:20.980Z,62.84
2022-08-05T14:13:49.237Z,63.40
2022-08-05T14:16:22.426Z,64.02
2022-08-05T14:18:49.814Z,63.70
2022-08-05T14:22:07.896Z,64.20
2022-08-05T14:24:04.483Z,64.19
2022-08-05T14:26:36.921Z,64.27
2022-08-05T14:29:16.126Z,64.69
2022-08-05T14:32:02.217Z,65.01
2022-08-05T14:34:35.132Z,65.58
2022-08-05T14:37:04.312Z,65.67
2022-08-05T14:39:50.294Z,65.65
2022-08-05T14:42:29.272Z,65.58
2022-08-05T14:44:56.817Z,65.58
2022-08-05T14:48:03.475Z,65.85
2022-08-05T14:50:17.836Z,65.99
2022-08-05T14:52:58.297Z,66.39
2022-08-05T14:55:28.749Z,66.13
2022-08-05T14:58:11.691Z,66.13
2022-08-05T15:00:58.708Z,66.18
2022-08-05T15:03:33.110Z,66.28
2022-08-05T15:06:27.894Z,66.50
2022-08-05T15:09:51.115Z,66.23
2022-08-05T15:12:26.935Z,66.50
2022-08-05T15:15:15.644Z,66.49
2022-08-05T15:18:03.668Z,66.28
2022-08-05T15:20:52.646Z,65.65
2022-08-05T15:23:40.101Z,66.07
2022-08-05T15:26:31.925Z,66.13
2022-08-05T15:29:19.533Z,65.86
2022-08-05T15:32:08.846Z,66.27
2022-08-05T15:34:55.926Z,65.90
2022-08-05T15:38:34.668Z,65.67
2022-08-05T15:41:20.294Z,65.49
2022-08-05T15:43:58.825Z,65.39
2022-08-05T15:46:45.801Z,65.50
2022-08-05T15:49:48.077Z,65.72
2022-08-05T15:52:54.626Z,66.15
2022-08-05T15:56:01.884Z,66.17
2022-08-05T15:58:49.680Z,66.97
2022-08-05T16:01:39.749Z,65.87
2022-08-05T16:04:39.178Z,65.81
2022-08-05T16:07:26.284Z,65.64
2022-08-05T16:10:16.764Z,65.60
2022-08-05T16:13:10.376Z,65.66
2022-08-05T16:15:58.201Z,65.70
2022-08-05T16:18:52.479Z,65.70
2022-08-05T16:21:59.547Z,65.46
2022-08-05T16:24:51.590Z,65.99
2022-08-05T16:27:59.740Z,66.23
2022-08-05T16:30:46.445Z,66.10
2022-08-05T16:33:41.759Z,65.93
2022-08-05T16:36:29.676Z,66.34
2022-08-05T16:39:16.689Z,66.29
2022-08-05T16:42:15.179Z,66.57
2022-08-05T16:46:02.752Z,66.52
2022-08-05T16:48:25.375Z,66.35
2022-08-05T16:51:13.805Z,66.35
2022-08-05T16:54:16.097Z,66.56
2022-08-05T16:57:06.729Z,66.66
2022-08-05T17:00:10.540Z,66.74
2022-08-05T17:02:57.699Z,66.85
2022-08-05T17:05:47.828Z,66.95
2022-08-05T17:08:52.942Z,67.20
2022-08-05T17:11:48.261Z,67.38
2022-08-05T17:14:37.633Z,67.14
2022-08-05T17:17:27.262Z,67.26
2022-08-05T17:20:30.614Z,67.45
2022-08-05T17:24:03.051Z,67.88
2022-08-05T17:26:24.612Z,67.97
2022-08-05T17:29:12.773Z,67.89
2022-08-05T17:32:00.404Z,68.47
2022-08-05T17:34:49.095Z,68.20
2022-08-05T17:37:40.362Z,68.84
2022-08-05T17:40:32.006Z,68.83
2022-08-05T17:43:19.406Z,69.13
2022-08-05T17:46:26.538Z,69.42
2022-08-05T17:49:13.549Z,69.87
2022-08-05T17:52:01.956Z,70.14
2022-08-05T17:54:48.988Z,70.24
2022-08-05T17:57:37.859Z,70.57
2022-08-05T18:00:30.897Z,70.71
2022-08-05T18:03:56.550Z,70.95
2022-08-05T18:06:29.221Z,71.11
2022-08-05T18:09:18.078Z,71.60
2022-08-05T18:12:05.075Z,72.25
2022-08-05T18:14:32.121Z,72.36
2022-08-05T18:16:59.411Z,72.34
2022-08-05T18:19:27.144Z,72.35
2022-08-05T18:22:08.368Z,72.35
2022-08-05T18:24:39.744Z,72.56
2022-08-05T18:27:12.403Z,72.09
2022-08-05T18:29:51.938Z,71.67
2022-08-05T18:32:20.844Z,72.00
2022-08-05T18:34:55.186Z,71.89
2022-08-05T18:37:33.633Z,71.93
2022-08-05T18:40:33.985Z,72.33
2022-08-05T18:42:56.708Z,71.68
2022-08-05T18:45:24.803Z,71.30
2022-08-05T18:47:56.638Z,70.61
2022-08-05T18:50:46.314Z,70.91
2022-08-05T18:53:20.491Z,71.08
2022-08-05T18:55:51.690Z,70.39
2022-08-05T18:58:18.773Z,70.52
2022-08-05T19:00:54.217Z,70.56
2022-08-05T19:03:52.694Z,70.84
2022-08-05T19:06:19.038Z,70.64
2022-08-05T19:08:49.670Z,70.80
2022-08-05T19:11:28.071Z,70.15
2022-08-05T19:14:00.703Z,70.99
2022-08-05T19:16:36.702Z,70.74
2022-08-05T19:19:14.572Z,70.18
2022-08-05T19:21:41.672Z,69.69
2022-08-05T19:24:12.645Z,69.86
2022-08-05T19:26:55.009Z,70.11
2022-08-05T19:29:26.535Z,70.12
2022-08-05T19:32:03.487Z,69.80
2022-08-05T19:34:31.684Z,69.23
2022-08-05T19:36:58.616Z,69.64
2022-08-05T19:39:28.359Z,69.87
2022-08-05T19:42:07.220Z,69.25
2022-08-05T19:44:44.608Z,69.58
2022-08-05T19:47:16.140Z,69.13
2022-08-05T19:49:44.634Z,69.15
2022-08-05T19:52:31.068Z,69.13
2022-08-05T19:55:00.652Z,69.03
2022-08-05T19:57:47.446Z,69.20
2022-08-05T20:00:21.349Z,69.00
2022-08-05T20:02:48.250Z,69.20
2022-08-05T20:05:16.432Z,69.33
2022-08-05T20:07:56.285Z,69.75
2022-08-05T20:10:25.966Z,69.64
2022-08-05T20:12:53.143Z,69.34
2022-08-05T20:15:48.836Z,69.42
2022-08-05T20:18:10.723Z,69.93
2022-08-05T20:20:57.084Z,69.37
2022-08-05T20:23:40.342Z,69.08
2022-08-05T20:26:15.417Z,69.27
2022-08-05T20:28:48.800Z,69.26
2022-08-05T20:31:17.095Z,69.44
2022-08-05T20:33:45.264Z,69.99
2022-08-05T20:36:14.255Z,70.12
2022-08-05T20:38:53.780Z,69.32
2022-08-05T20:41:26.833Z,69.97
2022-08-05T20:43:59.824Z,69.66
2022-08-05T20:46:30.220Z,69.71
2022-08-05T20:48:57.178Z,70.26
2022-08-05T20:51:24.130Z,70.35
2022-08-05T20:53:56.486Z,69.74
2022-08-05T20:56:31.890Z,69.58
2022-08-05T20:59:11.302Z,70.55
2022-08-05T21:01:41.628Z,69.82
2022-08-05T21:04:10.869Z,70.51
2022-08-05T21:06:45.887Z,70.75
2022-08-05T21:09:14.805Z,70.28
2022-08-05T21:12:08.080Z,70.71
2022-08-05T21:14:34.777Z,69.99
2022-08-05T21:17:05.522Z,70.15
2022-08-05T21:19:47.606Z,70.42
2022-08-05T21:22:18.673Z,70.34
2022-08-05T21:24:51.993Z,70.81
2022-08-05T21:27:25.531Z,70.83
2022-08-05T21:29:58.440Z,70.32
2022-08-05T21:32:29.234Z,70.81
2022-08-05T21:35:17.759Z,70.24
2022-08-05T21:37:47.269Z,70.82
2022-08-05T21:40:20.254Z,70.49
2022-08-05T21:42:47.608Z,71.11
2022-08-05T21:45:24.600Z,70.99
2022-08-05T21:48:06.277Z,71.22
2022-08-05T21:50:33.845Z,71.22
2022-08-05T21:53:27.742Z,71.24
2022-08-05T21:56:17.340Z,71.55
2022-08-05T21:59:07.938Z,71.28
2022-08-05T22:01:55.290Z,71.49
2022-08-05T22:04:42.197Z,71.73
2022-08-05T22:07:40.508Z,71.30
2022-08-05T22:10:37.947Z,71.21
2022-08-05T22:14:34.176Z,72.23
2022-08-05T22:16:41.945Z,71.66
2022-08-05T22:20:01.750Z,72.14
2022-08-05T22:22:45.721Z,72.05
2022-08-05T22:26:11.129Z,72.34
2022-08-05T22:28:39.182Z,72.10
2022-08-05T22:31:29.937Z,72.13
2022-08-05T22:34:20.107Z,72.72
2022-08-05T22:37:15.635Z,72.54
2022-08-05T22:40:02.696Z,72.88
2022-08-05T22:42:57.814Z,72.90
2022-08-05T22:45:45.520Z,72.97
2022-08-05T22:48:33.102Z,72.46
2022-08-05T22:51:23.175Z,72.62
2022-08-05T22:54:17.161Z,72.74
2022-08-05T22:57:04.150Z,73.10
2022-08-05T22:59:54.051Z,73.20
2022-08-05T23:02:46.615Z,73.04
2022-08-05T23:05:36.686Z,73.61
2022-08-05T23:08:26.197Z,73.25
2022-08-05T23:11:14.853Z,73.53
2022-08-05T23:14:02.633Z,72.99
2022-08-05T23:16:48.773Z,73.63
2022-08-05T23:19:50.776Z,73.11
2022-08-05T23:22:47.084Z,73.48
2022-08-05T23:25:53.572Z,73.72
2022-08-05T23:28:44.486Z,73.84
2022-08-05T23:31:31.707Z,74.04
2022-08-05T23:34:24.863Z,73.76
2022-08-05T23:37:12.001Z,73.90
2022-08-05T23:39:59.058Z,73.72
2022-08-05T23:42:47.366Z,73.56
2022-08-05T23:45:34.535Z,74.32
2022-08-05T23:48:22.394Z,73.95
2022-08-05T23:51:15.227Z,73.78
2022-08-05T23:54:02.912Z,73.97
2022-08-05T23:56:49.905Z,73.74
